createdAt,value
2024-02-13T00:01:15.067Z,101053.88
2024-02-13T00:03:43.119Z,101052.13
2024-02-13T00:06:11.232Z,101052.13
2024-02-13T00:08:45.107Z,101050.38
2024-02-13T00:11:15.093Z,101045.13
2024-02-13T00:13:44.373Z,101055.63
2024-02-13T00:16:12.295Z,101061.69
2024-02-13T00:18:40.561Z,101069.53
2024-02-13T00:21:09.044Z,101061.69
2024-02-13T00:23:37.555Z,101066.06
2024-02-13T00:26:08.533Z,101071.28
2024-02-13T00:28:36.463Z,101073.03
2024-02-13T00:31:05.931Z,101072.13
2024-02-13T00:33:34.485Z,101080.88
2024-02-13T00:36:02.705Z,101082.59
2024-02-13T00:38:31.269Z,101089.53
2024-02-13T00:40:59.118Z,101092.19
2024-02-13T00:43:29.814Z,101090.47
2024-02-13T00:45:58.361Z,101094.81
2024-02-13T00:48:27.939Z,101094.81
2024-02-13T00:50:56.382Z,101099.22
2024-02-13T00:53:24.346Z,101099.22
2024-02-13T00:55:52.689Z,101101.88
2024-02-13T00:58:20.526Z,101104.50
2024-02-13T01:00:50.278Z,101109.72
2024-02-13T01:03:18.255Z,101115.81
2024-02-13T01:05:46.145Z,101108.00
2024-02-13T01:08:14.131Z,101118.50
2024-02-13T01:10:41.996Z,101112.34
2024-02-13T01:13:09.970Z,101109.75
2024-02-13T01:15:37.983Z,101108.84
2024-02-13T01:18:07.901Z,101115.84
2024-02-13T01:20:36.031Z,101120.22
2024-02-13T01:23:04.024Z,101125.47
2024-02-13T01:25:32.782Z,101126.34
2024-02-13T01:28:00.939Z,101128.09
2024-02-13T01:30:28.762Z,101128.09
2024-02-13T01:32:56.684Z,101123.75
2024-02-13T01:35:26.483Z,101116.78
2024-02-13T01:37:54.368Z,101127.28
2024-02-13T01:40:22.990Z,101132.53
2024-02-13T01:42:50.839Z,101136.00
2024-02-13T01:45:18.789Z,101132.56
2024-02-13T01:47:46.846Z,101141.25
2024-02-13T01:50:19.140Z,101139.53
2024-02-13T01:52:48.488Z,101148.28
2024-02-13T01:55:17.527Z,101151.78
2024-02-13T01:57:45.514Z,101155.25
2024-02-13T02:00:14.829Z,101150.03
2024-02-13T02:02:43.752Z,101160.50
2024-02-13T02:05:12.681Z,101160.59
2024-02-13T02:07:42.253Z,101155.34
2024-02-13T02:10:11.827Z,101147.50
2024-02-13T02:12:40.850Z,101156.25
2024-02-13T02:15:10.771Z,101160.63
2024-02-13T02:17:38.671Z,101154.47
2024-02-13T02:20:08.402Z,101157.09
2024-02-13T02:22:36.279Z,101163.19
2024-02-13T02:25:09.422Z,101160.56
2024-02-13T02:27:37.517Z,101159.69
2024-02-13T02:30:07.930Z,101164.94
2024-02-13T02:32:35.886Z,101166.66
2024-02-13T02:35:03.802Z,101163.19
2024-02-13T02:37:33.044Z,101164.03
2024-02-13T02:40:00.910Z,101159.69
2024-02-13T02:42:30.113Z,101163.19
2024-02-13T02:44:58.013Z,101169.25
2024-02-13T02:47:25.972Z,101174.50
2024-02-13T02:49:53.817Z,101176.22
2024-02-13T02:52:21.661Z,101175.38
2024-02-13T02:54:49.483Z,101186.72
2024-02-13T02:57:17.615Z,101186.72
2024-02-13T02:59:47.278Z,101186.72
2024-02-13T03:02:15.992Z,101185.00
2024-02-13T03:04:43.962Z,101193.72
2024-02-13T03:07:11.823Z,101197.19
2024-02-13T03:09:39.641Z,101191.13
2024-02-13T03:12:08.352Z,101190.22
2024-02-13T03:14:36.264Z,101200.72
2024-02-13T03:17:07.819Z,101200.72
2024-02-13T03:19:35.744Z,101209.47
2024-02-13T03:22:03.677Z,101197.28
2024-02-13T03:24:31.561Z,101210.38
2024-02-13T03:26:59.442Z,101199.88
2024-02-13T03:29:28.223Z,101199.00
2024-02-13T03:31:56.589Z,101211.19
2024-02-13T03:34:26.161Z,101212.09
2024-02-13T03:36:54.073Z,101212.09
2024-02-13T03:39:22.047Z,101219.97
2024-02-13T03:41:49.898Z,101214.72
2024-02-13T03:44:17.817Z,101213.81
2024-02-13T03:46:45.695Z,101226.94
2024-02-13T03:49:13.610Z,101219.97
2024-02-13T03:51:42.840Z,101226.09
2024-02-13T03:54:10.945Z,101234.81
2024-02-13T03:56:39.379Z,101230.44
2024-02-13T03:59:11.445Z,101228.72
2024-02-13T04:01:40.606Z,101232.16
2024-02-13T04:04:09.472Z,101229.53
2024-02-13T04:06:37.596Z,101235.66
2024-02-13T04:09:08.331Z,101223.41
2024-02-13T04:11:36.839Z,101234.78
2024-02-13T04:14:04.885Z,101235.66
2024-02-13T04:16:32.742Z,101231.34
2024-02-13T04:19:00.990Z,101235.69
2024-02-13T04:21:28.866Z,101240.03
2024-02-13T04:23:56.735Z,101236.50
2024-02-13T04:26:36.068Z,101237.44
2024-02-13T04:29:05.307Z,101241.84
2024-02-13T04:31:33.188Z,101240.13
2024-02-13T04:34:01.500Z,101245.38
2024-02-13T04:36:29.473Z,101245.38
2024-02-13T04:38:57.303Z,101238.38
2024-02-13T04:41:26.938Z,101233.13
2024-02-13T04:43:55.743Z,101240.13
2024-02-13T04:46:26.591Z,101249.72
2024-02-13T04:48:55.197Z,101240.97
2024-02-13T04:51:25.035Z,101248.00
2024-02-13T04:53:53.364Z,101243.59
2024-02-13T04:56:21.418Z,101252.34
2024-02-13T04:58:56.631Z,101241.03
2024-02-13T05:01:24.567Z,101248.91
2024-02-13T05:04:06.303Z,101247.13
2024-02-13T05:06:51.575Z,101240.19
2024-02-13T05:09:19.499Z,101232.31
2024-02-13T05:11:47.412Z,101235.81
2024-02-13T05:14:17.089Z,101240.19
2024-02-13T05:16:44.967Z,101241.97
2024-02-13T05:19:13.642Z,101244.59
2024-02-13T05:21:42.659Z,101239.34
2024-02-13T05:24:10.762Z,101233.22
2024-02-13T05:26:38.986Z,101241.97
2024-02-13T05:29:06.925Z,101235.88
2024-02-13T05:31:37.005Z,101239.38
2024-02-13T05:34:05.602Z,101239.41
2024-02-13T05:36:34.321Z,101243.75
2024-02-13T05:39:03.553Z,101252.50
2024-02-13T05:41:31.491Z,101255.13
2024-02-13T05:44:03.764Z,101244.63
2024-02-13T05:46:31.939Z,101256.81
2024-02-13T05:49:01.882Z,101256.81
2024-02-13T05:51:29.802Z,101254.19
2024-02-13T05:53:59.097Z,101251.56
2024-02-13T05:56:28.392Z,101255.00
2024-02-13T05:58:59.181Z,101256.75
2024-02-13T06:01:27.436Z,101255.88
2024-02-13T06:03:58.210Z,101255.84
2024-02-13T06:06:28.057Z,101254.94
2024-02-13T06:08:56.112Z,101261.00
2024-02-13T06:11:24.802Z,101260.09
2024-02-13T06:13:52.868Z,101260.09
2024-02-13T06:16:20.711Z,101259.25
2024-02-13T06:18:48.786Z,101266.22
2024-02-13T06:21:21.614Z,101268.88
2024-02-13T06:23:52.843Z,101264.50
2024-02-13T06:26:20.899Z,101266.25
2024-02-13T06:28:50.233Z,101266.25
2024-02-13T06:31:18.098Z,101267.97
2024-02-13T06:33:46.027Z,101268.88
2024-02-13T06:36:14.011Z,101268.88
2024-02-13T06:38:41.854Z,101272.38
2024-02-13T06:41:12.071Z,101262.72
2024-02-13T06:43:40.094Z,101281.03
2024-02-13T06:46:07.915Z,101274.00
2024-02-13T06:48:36.382Z,101286.25
2024-02-13T06:51:04.750Z,101291.47
2024-02-13T06:53:33.529Z,101300.22
2024-02-13T06:56:01.401Z,101291.50
2024-02-13T06:58:30.647Z,101294.16
2024-02-13T07:00:58.498Z,101295.88
2024-02-13T07:03:26.360Z,101304.63
2024-02-13T07:05:57.173Z,101305.47
2024-02-13T07:08:25.715Z,101303.72
2024-02-13T07:10:55.123Z,101301.13
2024-02-13T07:13:23.312Z,101301.13
2024-02-13T07:15:53.214Z,101309.84
2024-02-13T07:18:21.163Z,101311.59
2024-02-13T07:20:49.135Z,101303.72
2024-02-13T07:23:17.007Z,101315.09
2024-02-13T07:25:44.906Z,101310.72
2024-02-13T07:28:12.738Z,101307.22
2024-02-13T07:30:40.551Z,101304.63
2024-02-13T07:33:10.094Z,101316.81
2024-02-13T07:35:38.207Z,101313.28
2024-02-13T07:38:06.386Z,101319.34
2024-02-13T07:40:34.217Z,101323.72
2024-02-13T07:43:02.045Z,101319.31
2024-02-13T07:45:30.080Z,101324.53
2024-02-13T07:47:58.508Z,101328.00
2024-02-13T07:50:28.299Z,101335.03
2024-02-13T07:52:56.315Z,101331.47
2024-02-13T07:55:24.196Z,101335.84
2024-02-13T07:57:53.513Z,101335.81
2024-02-13T08:00:22.297Z,101337.53
2024-02-13T08:02:50.554Z,101339.25
2024-02-13T08:05:19.265Z,101351.50
2024-02-13T08:07:48.545Z,101343.66
2024-02-13T08:10:16.390Z,101341.88
2024-02-13T08:12:44.243Z,101356.75
2024-02-13T08:15:12.569Z,101340.13
2024-02-13T08:17:40.518Z,101341.00
2024-02-13T08:20:10.155Z,101337.47
2024-02-13T08:22:39.115Z,101334.84
2024-02-13T08:25:09.550Z,101338.31
2024-02-13T08:27:38.457Z,101340.09
2024-02-13T08:30:11.395Z,101349.69
2024-02-13T08:32:42.525Z,101357.59
2024-02-13T08:35:11.619Z,101354.13
2024-02-13T08:37:40.053Z,101359.38
2024-02-13T08:40:10.456Z,101359.41
2024-02-13T08:42:38.690Z,101362.88
2024-02-13T08:45:07.978Z,101354.16
2024-02-13T08:47:35.956Z,101359.41
2024-02-13T08:50:04.193Z,101359.41
2024-02-13T08:52:32.225Z,101355.97
2024-02-13T08:55:00.037Z,101352.44
2024-02-13T08:57:29.218Z,101360.31
2024-02-13T08:59:57.419Z,101356.78
2024-02-13T09:02:25.488Z,101361.13
2024-02-13T09:04:53.524Z,101361.16
2024-02-13T09:07:21.375Z,101363.78
2024-02-13T09:09:49.236Z,101367.28
2024-02-13T09:12:17.122Z,101375.16
2024-02-13T09:14:46.395Z,101371.63
2024-02-13T09:17:15.032Z,101379.50
2024-02-13T09:19:44.615Z,101376.84
2024-02-13T09:22:15.161Z,101380.34
2024-02-13T09:24:45.330Z,101392.59
2024-02-13T09:27:13.542Z,101392.56
2024-02-13T09:29:41.583Z,101391.66
2024-02-13T09:32:11.551Z,101405.63
2024-02-13T09:34:39.573Z,101394.22
2024-02-13T09:37:08.108Z,101402.94
2024-02-13T09:39:35.968Z,101400.31
2024-02-13T09:42:04.534Z,101407.28
2024-02-13T09:44:33.963Z,101412.50
2024-02-13T09:47:02.900Z,101412.47
2024-02-13T09:49:32.387Z,101404.59
2024-02-13T09:52:00.374Z,101405.44
2024-02-13T09:54:28.322Z,101415.94
2024-02-13T09:56:56.321Z,101420.31
2024-02-13T09:59:25.182Z,101408.03
2024-02-13T10:01:53.697Z,101415.00
2024-02-13T10:04:21.659Z,101420.25
2024-02-13T10:06:52.390Z,101421.09
2024-02-13T10:09:20.687Z,101432.44
2024-02-13T10:11:50.017Z,101431.63
2024-02-13T10:14:20.524Z,101435.06
2024-02-13T10:16:51.100Z,101426.34
2024-02-13T10:19:19.659Z,101431.59
2024-02-13T10:21:50.670Z,101439.44
2024-02-13T10:24:20.095Z,101437.66
2024-02-13T10:26:48.186Z,101433.28
2024-02-13T10:29:16.086Z,101442.91
2024-02-13T10:31:46.351Z,101443.72
2024-02-13T10:34:14.700Z,101448.94
2024-02-13T10:36:45.532Z,101449.81
2024-02-13T10:39:14.201Z,101458.53
2024-02-13T10:41:45.762Z,101457.63
2024-02-13T10:44:15.218Z,101453.25
2024-02-13T10:46:44.877Z,101456.78
2024-02-13T10:49:18.797Z,101459.41
2024-02-13T10:51:46.640Z,101457.63
2024-02-13T10:54:16.745Z,101462.00
2024-02-13T10:56:46.814Z,101467.19
2024-02-13T10:59:14.850Z,101463.66
2024-02-13T11:01:43.530Z,101468.97
2024-02-13T11:04:11.667Z,101476.84
2024-02-13T11:06:39.579Z,101469.78
2024-02-13T11:09:13.380Z,101467.94
2024-02-13T11:11:46.081Z,101469.69
2024-02-13T11:14:18.489Z,101463.59
2024-02-13T11:16:53.602Z,101474.09
2024-02-13T11:19:22.222Z,101469.75
2024-02-13T11:21:52.456Z,101467.94
2024-02-13T11:24:23.415Z,101475.75
2024-02-13T11:26:52.677Z,101470.44
2024-02-13T11:29:23.375Z,101470.44
2024-02-13T11:31:59.159Z,101471.34
2024-02-13T11:34:43.189Z,101474.88
2024-02-13T11:37:21.973Z,101482.75
2024-02-13T11:39:50.196Z,101474.88
2024-02-13T11:42:20.737Z,101487.09
2024-02-13T11:44:50.549Z,101481.88
2024-02-13T11:47:21.358Z,101484.56
2024-02-13T11:49:50.994Z,101477.53
2024-02-13T11:52:19.270Z,101486.31
2024-02-13T11:54:47.543Z,101484.56
2024-02-13T11:57:16.021Z,101484.47
2024-02-13T11:59:45.391Z,101487.97
2024-02-13T12:02:15.292Z,101480.94
2024-02-13T12:04:44.382Z,101482.66
2024-02-13T12:07:12.666Z,101494.94
2024-02-13T12:09:41.951Z,101498.47
2024-02-13T12:12:10.516Z,101490.63
2024-02-13T12:14:40.040Z,101496.75
2024-02-13T12:17:09.285Z,101500.22
2024-02-13T12:19:38.984Z,101498.47
2024-02-13T12:22:10.782Z,101494.94
2024-02-13T12:24:40.762Z,101494.00
2024-02-13T12:27:11.217Z,101489.59
2024-02-13T12:29:40.648Z,101488.75
2024-02-13T12:32:11.770Z,101497.53
2024-02-13T12:34:40.162Z,101487.03
2024-02-13T12:37:09.631Z,101484.44
2024-02-13T12:39:38.314Z,101489.69
2024-02-13T12:42:12.185Z,101491.44
2024-02-13T12:44:40.503Z,101494.97
2024-02-13T12:47:09.143Z,101489.72
2024-02-13T12:49:40.018Z,101499.38
2024-02-13T12:52:08.673Z,101488.88
2024-02-13T12:54:36.669Z,101491.53
2024-02-13T12:57:04.838Z,101493.25
2024-02-13T12:59:39.252Z,101493.28
2024-02-13T13:02:09.911Z,101495.06
2024-02-13T13:04:39.193Z,101494.19
2024-02-13T13:07:07.653Z,101494.19
2024-02-13T13:09:37.421Z,101498.59
2024-02-13T13:12:09.025Z,101496.84
2024-02-13T13:14:39.297Z,101492.47
2024-02-13T13:17:08.659Z,101490.66
2024-02-13T13:19:36.611Z,101493.25
2024-02-13T13:22:06.686Z,101494.94
2024-02-13T13:24:34.558Z,101485.28
2024-02-13T13:27:02.918Z,101480.09
2024-02-13T13:29:31.451Z,101485.28
2024-02-13T13:31:59.405Z,101487.91
2024-02-13T13:34:29.352Z,101481.78
2024-02-13T13:36:58.944Z,101490.50
2024-02-13T13:39:31.167Z,101483.50
2024-02-13T13:42:09.673Z,101488.75
2024-02-13T13:44:38.507Z,101485.25
2024-02-13T13:47:06.670Z,101492.31
2024-02-13T13:49:36.297Z,101493.22
2024-02-13T13:52:07.132Z,101492.31
2024-02-13T13:54:36.501Z,101497.53
2024-02-13T13:57:04.380Z,101491.38
2024-02-13T13:59:32.984Z,101495.72
2024-02-13T14:02:01.779Z,101485.22
2024-02-13T14:04:30.223Z,101488.75
2024-02-13T14:06:58.156Z,101500.09
2024-02-13T14:09:26.013Z,101494.00
2024-02-13T14:11:55.304Z,101491.31
2024-02-13T14:14:23.305Z,101496.50
2024-02-13T14:16:52.451Z,101492.19
2024-02-13T14:19:20.738Z,101492.19
2024-02-13T14:21:49.614Z,101493.13
2024-02-13T14:24:17.472Z,101487.03
2024-02-13T14:26:45.412Z,101503.66
2024-02-13T14:29:14.639Z,101501.09
2024-02-13T14:31:43.372Z,101510.72
2024-02-13T14:34:11.762Z,101500.22
2024-02-13T14:36:42.657Z,101507.28
2024-02-13T14:39:18.334Z,101511.66
2024-02-13T14:41:50.589Z,101513.44
2024-02-13T14:44:19.868Z,101512.59
2024-02-13T14:46:47.720Z,101510.84
2024-02-13T14:49:15.683Z,101511.75
2024-02-13T14:51:43.988Z,101506.50
2024-02-13T14:54:13.581Z,101513.50
2024-02-13T14:56:42.809Z,101512.63
2024-02-13T14:59:11.970Z,101517.00
2024-02-13T15:01:42.073Z,101519.63
2024-02-13T15:04:09.987Z,101517.03
2024-02-13T15:06:39.861Z,101519.66
2024-02-13T15:09:11.416Z,101519.66
2024-02-13T15:11:40.039Z,101524.94
2024-02-13T15:14:09.306Z,101517.06
2024-02-13T15:16:37.126Z,101520.56
2024-02-13T15:19:07.641Z,101511.81
2024-02-13T15:21:35.713Z,101521.47
2024-02-13T15:24:05.052Z,101525.81
2024-02-13T15:26:34.439Z,101518.84
2024-02-13T15:29:02.404Z,101523.22
2024-02-13T15:31:30.251Z,101525.00
2024-02-13T15:33:58.263Z,101522.38
2024-02-13T15:36:34.298Z,101512.78
2024-02-13T15:39:33.952Z,101517.16
2024-02-13T15:42:19.525Z,101526.84
2024-02-13T15:45:04.848Z,101534.69
2024-02-13T15:47:34.908Z,101535.56
2024-02-13T15:50:06.515Z,101535.56
2024-02-13T15:52:36.726Z,101535.56
2024-02-13T15:55:04.639Z,101534.72
2024-02-13T15:57:32.826Z,101533.81
2024-02-13T16:00:00.771Z,101537.34
2024-02-13T16:02:29.188Z,101538.22
2024-02-13T16:04:56.998Z,101531.22
2024-02-13T16:07:26.587Z,101535.63
2024-02-13T16:09:55.902Z,101540.88
2024-02-13T16:12:23.802Z,101539.16
2024-02-13T16:14:52.178Z,101544.38
2024-02-13T16:17:20.890Z,101550.50
2024-02-13T16:19:48.907Z,101550.50
2024-02-13T16:22:16.916Z,101550.50
2024-02-13T16:24:44.754Z,101556.63
2024-02-13T16:27:14.910Z,101550.50
2024-02-13T16:29:42.819Z,101554.91
2024-02-13T16:32:13.095Z,101553.13
2024-02-13T16:34:42.919Z,101554.03
2024-02-13T16:37:12.246Z,101562.78
2024-02-13T16:39:40.131Z,101570.66
2024-02-13T16:42:08.188Z,101569.78
2024-02-13T16:44:37.483Z,101567.16
2024-02-13T16:47:06.279Z,101568.88
2024-02-13T16:49:35.190Z,101562.78
2024-02-13T16:52:03.549Z,101563.69
2024-02-13T16:54:31.543Z,101568.03
2024-02-13T16:57:00.293Z,101568.91
2024-02-13T16:59:28.409Z,101568.03
2024-02-13T17:01:58.494Z,101566.31
2024-02-13T17:04:27.757Z,101568.91
2024-02-13T17:06:55.782Z,101581.16
2024-02-13T17:09:23.720Z,101582.91
2024-02-13T17:11:52.220Z,101581.16
2024-02-13T17:14:20.543Z,101579.41
2024-02-13T17:16:48.708Z,101579.41
2024-02-13T17:19:18.091Z,101585.50
2024-02-13T17:21:46.465Z,101584.66
2024-02-13T17:24:14.391Z,101594.28
2024-02-13T17:26:42.513Z,101584.66
2024-02-13T17:29:11.204Z,101589.91
2024-02-13T17:31:39.019Z,101589.88
2024-02-13T17:34:07.095Z,101590.75
2024-02-13T17:36:36.528Z,101586.38
2024-02-13T17:39:06.437Z,101586.38
2024-02-13T17:41:34.431Z,101589.00
2024-02-13T17:44:02.348Z,101586.38
2024-02-13T17:46:30.161Z,101585.47
2024-02-13T17:48:58.162Z,101588.09
2024-02-13T17:51:26.125Z,101587.22
2024-02-13T17:53:56.305Z,101586.38
2024-02-13T17:56:25.064Z,101597.72
2024-02-13T17:58:52.917Z,101596.84
2024-02-13T18:01:20.741Z,101591.63
2024-02-13T18:03:48.679Z,101587.22
2024-02-13T18:06:16.725Z,101588.09
2024-02-13T18:08:45.353Z,101591.63
2024-02-13T18:11:15.416Z,101586.38
2024-02-13T18:13:43.214Z,101584.59
2024-02-13T18:16:11.705Z,101593.34
2024-02-13T18:18:39.693Z,101586.38
2024-02-13T18:21:08.178Z,101583.69
2024-02-13T18:23:36.165Z,101585.41
2024-02-13T18:26:05.730Z,101581.94
2024-02-13T18:28:34.941Z,101587.16
2024-02-13T18:31:04.578Z,101582.78
2024-02-13T18:33:32.601Z,101588.88
2024-02-13T18:36:00.671Z,101585.38
2024-02-13T18:38:28.575Z,101591.53
2024-02-13T18:40:57.518Z,101586.28
2024-02-13T18:43:27.088Z,101581.03
2024-02-13T18:45:56.619Z,101586.28
2024-02-13T18:48:25.092Z,101584.56
2024-02-13T18:50:53.211Z,101588.09
2024-02-13T18:53:23.826Z,101583.75
2024-02-13T18:55:51.802Z,101581.97
2024-02-13T18:58:19.656Z,101579.34
2024-02-13T19:00:47.531Z,101577.63
2024-02-13T19:03:18.380Z,101574.16
2024-02-13T19:05:46.342Z,101571.53
2024-02-13T19:08:15.022Z,101568.91
2024-02-13T19:10:43.217Z,101568.03
2024-02-13T19:13:11.095Z,101567.16
2024-02-13T19:15:38.897Z,101565.44
2024-02-13T19:18:11.244Z,101572.41
2024-02-13T19:20:40.559Z,101571.56
2024-02-13T19:23:08.709Z,101569.81
2024-02-13T19:25:36.573Z,101575.94
2024-02-13T19:28:05.027Z,101575.94
2024-02-13T19:30:32.846Z,101573.31
2024-02-13T19:33:00.719Z,101570.69
2024-02-13T19:35:28.973Z,101568.94
2024-02-13T19:37:58.435Z,101568.94
2024-02-13T19:40:26.275Z,101568.94
2024-02-13T19:42:54.205Z,101567.22
2024-02-13T19:45:22.698Z,101562.81
2024-02-13T19:47:50.682Z,101567.22
2024-02-13T19:50:18.676Z,101561.97
2024-02-13T19:52:46.561Z,101561.97
2024-02-13T19:55:17.038Z,101561.97
2024-02-13T19:57:44.869Z,101569.84
2024-02-13T20:00:14.051Z,101567.22
2024-02-13T20:02:43.416Z,101571.59
2024-02-13T20:05:11.352Z,101573.31
2024-02-13T20:07:39.678Z,101575.09
2024-02-13T20:10:08.386Z,101570.69
2024-02-13T20:12:37.563Z,101568.97
2024-02-13T20:15:06.861Z,101563.78
2024-02-13T20:17:34.923Z,101566.41
2024-02-13T20:20:04.914Z,101566.34
2024-02-13T20:22:32.759Z,101572.47
2024-02-13T20:25:00.558Z,101569.84
2024-02-13T20:27:28.391Z,101579.44
2024-02-13T20:29:57.628Z,101568.97
2024-02-13T20:32:25.678Z,101574.19
2024-02-13T20:34:53.836Z,101570.69
2024-02-13T20:37:21.977Z,101566.34
2024-02-13T20:39:50.681Z,101565.47
2024-02-13T20:42:21.147Z,101563.72
2024-02-13T20:44:49.004Z,101566.34
2024-02-13T20:47:18.201Z,101572.50
2024-02-13T20:49:46.062Z,101578.63
2024-02-13T20:52:15.335Z,101571.63
2024-02-13T20:54:43.303Z,101575.13
2024-02-13T20:57:11.158Z,101576.91
2024-02-13T20:59:39.107Z,101572.53
2024-02-13T21:02:07.379Z,101575.13
2024-02-13T21:04:36.830Z,101571.66
2024-02-13T21:07:06.117Z,101574.31
2024-02-13T21:09:34.153Z,101575.16
2024-02-13T21:12:02.080Z,101571.69
2024-02-13T21:14:30.216Z,101567.34
2024-02-13T21:16:58.828Z,101570.81
2024-02-13T21:19:27.300Z,101568.19
2024-02-13T21:22:14.275Z,101569.06
2024-02-13T21:24:42.113Z,101569.06
2024-02-13T21:27:09.975Z,101568.16
2024-02-13T21:29:37.990Z,101564.66
2024-02-13T21:32:06.257Z,101569.91
2024-02-13T21:34:35.102Z,101569.06
2024-02-13T21:37:04.408Z,101564.72
2024-02-13T21:39:33.205Z,101562.09
2024-02-13T21:42:01.160Z,101566.44
2024-02-13T21:44:29.475Z,101564.72
2024-02-13T21:46:57.307Z,101556.84
2024-02-13T21:49:25.278Z,101554.22
2024-02-13T21:51:53.931Z,101561.22
2024-02-13T21:54:23.191Z,101557.69
2024-02-13T21:56:51.603Z,101562.09
2024-02-13T21:59:20.852Z,101564.72
2024-02-13T22:01:48.810Z,101563.84
2024-02-13T22:04:16.656Z,101555.97
2024-02-13T22:06:44.575Z,101559.47
2024-02-13T22:09:13.224Z,101555.06
2024-02-13T22:11:42.798Z,101560.31
2024-02-13T22:14:10.915Z,101553.34
2024-02-13T22:16:38.809Z,101554.22
2024-02-13T22:19:07.129Z,101550.72
2024-02-13T22:21:35.171Z,101551.63
2024-02-13T22:24:04.874Z,101553.38
2024-02-13T22:26:38.107Z,101553.38
2024-02-13T22:29:08.215Z,101548.13
2024-02-13T22:31:36.150Z,101549.00
2024-02-13T22:34:06.759Z,101545.47
2024-02-13T22:36:34.878Z,101542.81
2024-02-13T22:39:02.845Z,101544.56
2024-02-13T22:41:31.078Z,101541.94
2024-02-13T22:43:59.260Z,101543.69
2024-02-13T22:46:28.459Z,101539.31
2024-02-13T22:48:56.387Z,101541.94
2024-02-13T22:51:24.270Z,101541.03
2024-02-13T22:53:52.216Z,101536.66
2024-02-13T22:56:20.438Z,101542.75
2024-02-13T22:58:48.269Z,101541.84
2024-02-13T23:01:16.293Z,101533.97
2024-02-13T23:03:45.608Z,101537.50
2024-02-13T23:06:13.562Z,101534.88
2024-02-13T23:08:41.667Z,101540.09
2024-02-13T23:11:11.113Z,101532.22
2024-02-13T23:13:44.278Z,101540.94
2024-02-13T23:16:15.718Z,101533.06
2024-02-13T23:18:45.046Z,101531.31
2024-02-13T23:21:13.053Z,101530.41
2024-02-13T23:23:41.030Z,101530.41
2024-02-13T23:26:09.054Z,101535.66
2024-02-13T23:28:48.293Z,101531.28
2024-02-13T23:31:23.737Z,101523.41
2024-02-13T23:33:53.768Z,101526.03
2024-02-13T23:36:21.887Z,101529.50
2024-02-13T23:38:50.352Z,101522.53
2024-02-13T23:41:18.226Z,101525.13
2024-02-13T23:43:46.664Z,101519.00
2024-02-13T23:46:14.544Z,101518.09
2024-02-13T23:48:42.788Z,101515.53
2024-02-13T23:51:13.080Z,101520.78
2024-02-13T23:53:40.987Z,101510.25
2024-02-13T23:56:09.126Z,101510.25
2024-02-13T23:58:37.079Z,101511.13
